createdAt,value
2018-08-23T01:14:04.507Z,26.70
2018-08-23T01:16:39.130Z,26.60
2018-08-23T01:19:18.781Z,26.50
2018-08-23T01:21:56.192Z,26.50
2018-08-23T01:24:32.696Z,26.40
2018-08-23T01:27:14.519Z,26.40
2018-08-23T01:29:48.839Z,26.40
2018-08-23T01:32:28.892Z,26.40
2018-08-23T01:35:03.588Z,26.40
2018-08-23T01:37:40.320Z,26.30
2018-08-23T01:40:16.020Z,26.30
2018-08-23T01:42:50.486Z,26.30
2018-08-23T01:45:25.231Z,26.30
2018-08-23T01:48:04.642Z,26.20
2018-08-23T01:50:39.120Z,26.20
2018-08-23T01:53:13.508Z,26.20
2018-08-23T01:55:49.687Z,26.10
2018-08-23T01:58:25.660Z,26.10
2018-08-23T02:01:11.876Z,26.10
2018-08-23T02:03:47.835Z,26.10
2018-08-23T02:06:26.455Z,26.00
2018-08-23T02:09:02.288Z,26.00
2018-08-23T02:11:45.804Z,25.90
2018-08-23T02:14:21.796Z,25.90
2018-08-23T02:16:56.176Z,25.90
2018-08-23T02:19:44.341Z,25.90
2018-08-23T02:22:20.175Z,25.90
2018-08-23T02:24:54.534Z,25.90
2018-08-23T02:27:31.475Z,25.90
2018-08-23T02:30:06.444Z,25.90
2018-08-23T02:32:41.247Z,25.90
2018-08-23T02:35:15.627Z,25.80
2018-08-23T02:37:50.073Z,25.90
2018-08-23T02:40:24.398Z,25.80
2018-08-23T02:42:59.049Z,25.80
2018-08-23T02:45:46.568Z,25.80
2018-08-23T02:48:21.667Z,25.70
2018-08-23T02:51:04.228Z,25.70
2018-08-23T02:53:40.000Z,25.60
2018-08-23T02:56:20.272Z,25.60
2018-08-23T02:59:05.819Z,25.60
2018-08-23T03:01:44.424Z,25.50
2018-08-23T03:04:22.126Z,25.50
2018-08-23T03:59:34.435Z,25.40
2018-08-23T04:02:10.259Z,25.20
2018-08-23T04:04:47.344Z,25.20
2018-08-23T04:07:22.987Z,25.20
2018-08-23T04:09:58.871Z,25.20
2018-08-23T04:12:36.762Z,25.20
2018-08-23T04:15:26.443Z,25.10
2018-08-23T04:18:08.244Z,25.10
2018-08-23T04:20:50.447Z,25.00
2018-08-23T04:23:26.072Z,25.00
2018-08-23T04:26:00.572Z,25.00
2018-08-23T04:28:36.258Z,25.00
2018-08-23T04:31:10.671Z,25.00
2018-08-23T04:33:45.231Z,24.90
2018-08-23T04:36:31.168Z,25.00
2018-08-23T04:39:10.281Z,24.90
2018-08-23T04:41:44.682Z,24.80
2018-08-23T04:44:20.492Z,24.80
2018-08-23T04:46:56.365Z,24.80
2018-08-23T04:49:30.933Z,24.80
2018-08-23T04:52:05.238Z,24.80
2018-08-23T04:54:39.824Z,24.80
2018-08-23T04:57:21.944Z,24.80
